Terminal Aerodrome Forecast
Issued by NWS

Home | Current Version | Previous Version | Text Only | Print | Product List | Glossary On
Versions: 1 2 3 4 5 6 7 8 9 10 11 12 13 14 15 16 17 18 19 20 21 22 23 24 25 26 27 28 29 30 31 32 33 34 35 36 37 38 39 40 41 42 43 44 45 46 47 48 49 50
000
FTUS43 KAPX 170933 AAA
TAFPLN
TAF AMD
KPLN 170933Z 1710/1806 00000KT 5SM BR FEW002 FEW060
      TEMPO 1709/1711 1SM BR BKN002
     FM171400 07007KT P6SM FEW250
     FM171700 10009KT P6SM FEW250
     FM180000 11006KT P6SM FEW100
     FM180300 13005KT P6SM SCT100=

USA.gov is the U.S. government's official web portal to all federal, state and local government web resources and services.